Time;durP1;ratioP1;P1;durP2;ratioP2;P2;SDS_P1;SDS_P2;PMS_P1;PMS_P2;Temp;Humidity;BMP_temperature;BMP_pressure;BME280_temperature;BME280_humidity;BME280_pressure;Samples;Min_cycle;Max_cycle;Signal;HPM_P1;HPM_P2
2022/11/19 00:00:22;;;;;;;115.75;54.47;;;;;;;4.17;100.00;100669.47;5054665;28;20068;-45
2022/11/19 00:02:49;;;;;;;120.10;55.28;;;;;;;4.13;100.00;100665.00;5055605;28;20083;-46
2022/11/19 00:05:14;;;;;;;125.25;56.83;;;;;;;4.09;100.00;100673.28;5055195;28;20028;-47
2022/11/19 00:07:39;;;;;;;119.57;57.65;;;;;;;4.06;100.00;100673.13;5054525;28;20075;-48
2022/11/19 00:10:05;;;;;;;121.10;55.90;;;;;;;4.02;100.00;100673.78;5055335;28;20512;-45
2022/11/19 00:15:14;;;;;;;131.63;57.42;;;;;;;3.92;100.00;100683.44;5054222;28;20090;-47
2022/11/19 00:17:39;;;;;;;127.63;57.67;;;;;;;3.90;100.00;100684.16;5055299;28;20029;-45
2022/11/19 00:20:05;;;;;;;130.95;59.95;;;;;;;3.88;100.00;100688.31;5054823;28;20112;-47
2022/11/19 00:22:30;;;;;;;124.72;59.20;;;;;;;3.84;100.00;100684.72;5054521;28;20507;-47
2022/11/19 00:24:56;;;;;;;134.23;58.97;;;;;;;3.83;100.00;100688.06;5055011;28;20419;-46
2022/11/19 00:27:21;;;;;;;136.07;59.65;;;;;;;3.83;100.00;100685.50;5055071;28;20036;-45
2022/11/19 00:29:46;;;;;;;131.43;59.00;;;;;;;3.84;100.00;100687.28;5055095;28;20025;-46
2022/11/19 00:32:12;;;;;;;134.02;59.90;;;;;;;3.86;100.00;100690.81;5054761;28;20025;-45
2022/11/19 00:34:37;;;;;;;134.73;60.00;;;;;;;3.85;100.00;100689.03;5054077;28;20032;-46
2022/11/19 00:37:02;;;;;;;122.35;58.50;;;;;;;3.85;100.00;100699.22;5054845;28;20036;-47
2022/11/19 00:39:27;;;;;;;127.20;58.30;;;;;;;3.77;100.00;100690.28;5055046;28;20079;-47
2022/11/19 00:41:52;;;;;;;138.52;60.42;;;;;;;3.72;100.00;100691.69;5053828;28;20029;-47
2022/11/19 00:44:18;;;;;;;136.02;63.10;;;;;;;3.73;100.00;100698.56;5054840;28;20029;-45
2022/11/19 00:46:43;;;;;;;149.63;63.05;;;;;;;3.70;100.00;100700.94;5054870;28;20025;-45
2022/11/19 00:49:08;;;;;;;140.77;64.25;;;;;;;3.66;100.00;100699.03;5053584;28;20024;-47
2022/11/19 00:51:34;;;;;;;146.18;62.88;;;;;;;3.62;100.00;100701.38;5054901;28;20033;-47
2022/11/19 00:53:59;;;;;;;148.98;64.30;;;;;;;3.65;100.00;100702.38;5054388;28;20021;-46
2022/11/19 00:56:26;;;;;;;137.70;63.17;;;;;;;3.65;100.00;100707.47;5053754;28;20029;-47
2022/11/19 00:58:51;;;;;;;141.15;63.15;;;;;;;3.63;100.00;100710.78;5054097;28;20048;-46
2022/11/19 01:01:19;;;;;;;145.07;64.75;;;;;;;3.67;100.00;100710.94;5054381;28;20112;-46
2022/11/19 01:03:45;;;;;;;144.40;62.10;;;;;;;3.63;100.00;100708.25;5053594;28;20028;-45
2022/11/19 01:06:11;;;;;;;135.13;60.95;;;;;;;3.58;100.00;100714.75;5054253;28;20087;-46
2022/11/19 01:08:37;;;;;;;132.38;59.65;;;;;;;3.54;100.00;100717.94;5054430;28;20032;-46
2022/11/19 01:11:05;;;;;;;123.82;57.92;;;;;;;3.52;100.00;100724.59;5053416;28;20033;-47
2022/11/19 01:13:36;;;;;;;137.50;59.67;;;;;;;3.54;100.00;100723.03;5054263;28;20051;-46
2022/11/19 01:16:09;;;;;;;131.13;57.22;;;;;;;3.50;100.00;100726.22;5053897;28;20537;-45
2022/11/19 01:18:36;;;;;;;129.27;57.88;;;;;;;3.50;100.00;100723.66;5053228;28;20484;-46
2022/11/19 01:21:03;;;;;;;134.80;58.90;;;;;;;3.43;100.00;100724.09;5053363;28;20036;-45
2022/11/19 01:23:29;;;;;;;134.32;58.15;;;;;;;3.48;100.00;100727.78;5053925;28;20743;-47
2022/11/19 01:25:54;;;;;;;128.73;55.38;;;;;;;3.47;100.00;100728.56;5053006;28;20036;-47
2022/11/19 01:28:19;;;;;;;143.82;60.25;;;;;;;3.54;100.00;100733.22;5053981;28;20029;-45
2022/11/19 01:30:45;;;;;;;127.95;57.80;;;;;;;3.45;100.00;100732.72;5053285;28;20104;-46
2022/11/19 01:33:11;;;;;;;126.20;56.75;;;;;;;3.44;100.00;100738.59;5053852;28;20037;-46
2022/11/19 01:35:36;;;;;;;111.53;52.95;;;;;;;3.37;100.00;100741.56;5053905;28;20017;-46
2022/11/19 01:38:03;;;;;;;115.65;53.03;;;;;;;3.33;100.00;100748.19;5052938;28;20606;-47
2022/11/19 01:40:29;;;;;;;117.63;52.28;;;;;;;3.31;100.00;100743.78;5053759;28;20056;-43
2022/11/19 01:42:54;;;;;;;116.13;51.80;;;;;;;3.27;100.00;100745.28;5053478;28;20103;-47
2022/11/19 01:45:36;;;;;;;106.47;50.35;;;;;;;3.28;100.00;100754.69;5052853;28;20155;-47
2022/11/19 01:48:16;;;;;;;106.70;48.88;;;;;;;3.22;100.00;100754.31;5053437;28;20039;-46
2022/11/19 01:50:46;;;;;;;113.60;51.05;;;;;;;3.20;100.00;100756.78;5053610;28;20053;-46
2022/11/19 01:53:12;;;;;;;104.22;49.50;;;;;;;3.17;100.00;100763.38;5052499;28;20036;-47
2022/11/19 01:55:39;;;;;;;107.50;49.92;;;;;;;3.16;100.00;100759.06;5053410;28;20033;-47
2022/11/19 01:58:06;;;;;;;106.30;50.40;;;;;;;3.10;100.00;100768.09;5053003;28;20489;-47
2022/11/19 02:00:31;;;;;;;98.10;48.97;;;;;;;3.08;100.00;100767.13;5052638;28;20044;-47
2022/11/19 02:02:57;;;;;;;99.25;49.22;;;;;;;3.08;100.00;100773.91;5053066;28;20025;-45
2022/11/19 02:05:24;;;;;;;107.75;51.15;;;;;;;3.09;100.00;100775.66;5053397;28;20035;-46
2022/11/19 02:07:57;;;;;;;101.35;49.15;;;;;;;3.07;100.00;100779.78;5052623;28;20025;-46
2022/11/19 02:10:47;;;;;;;99.07;48.70;;;;;;;3.08;100.00;100777.31;5053084;28;20028;-45
2022/11/19 02:13:37;;;;;;;98.50;48.25;;;;;;;3.10;100.00;100778.28;5052058;28;20476;-44
2022/11/19 02:16:34;;;;;;;96.80;49.53;;;;;;;3.07;100.00;100778.13;5052913;28;20028;-43
2022/11/19 02:19:29;;;;;;;97.15;48.45;;;;;;;3.02;100.00;100782.06;5052998;28;20036;-47
2022/11/19 02:22:01;;;;;;;101.38;51.80;;;;;;;3.05;100.00;100783.91;5030814;28;20037;-47
2022/11/19 02:25:06;;;;;;;99.63;50.83;;;;;;;2.97;100.00;100784.31;5053031;28;20029;-42
2022/11/19 02:27:57;;;;;;;98.53;49.28;;;;;;;3.01;100.00;100784.50;5032603;28;20718;-46
2022/11/19 02:30:22;;;;;;;100.22;49.63;;;;;;;2.90;100.00;100777.09;5052777;28;20040;-46
2022/11/19 02:32:55;;;;;;;101.95;50.22;;;;;;;2.87;100.00;100781.16;5052273;28;20029;-43
2022/11/19 02:35:42;;;;;;;102.30;51.50;;;;;;;2.86;100.00;100789.56;5052124;28;20028;-47
2022/11/19 02:38:25;;;;;;;104.25;53.40;;;;;;;2.83;100.00;100785.19;5052622;28;20104;-47
2022/11/19 02:40:58;;;;;;;98.45;51.30;;;;;;;2.78;100.00;100784.03;5052530;28;20040;-45
2022/11/19 02:43:32;;;;;;;101.50;52.55;;;;;;;2.78;100.00;100787.44;5052524;28;20071;-44
2022/11/19 02:46:03;;;;;;;107.55;52.75;;;;;;;2.74;100.00;100787.19;5052435;28;20048;-43
2022/11/19 02:48:37;;;;;;;102.40;49.83;;;;;;;2.70;100.00;100788.66;5051946;28;20025;-46
2022/11/19 02:51:05;;;;;;;106.00;52.13;;;;;;;2.66;100.00;100796.00;5052500;28;20028;-46
2022/11/19 02:53:31;;;;;;;103.45;50.90;;;;;;;2.66;100.00;100798.53;5052728;28;20074;-44
2022/11/19 02:56:12;;;;;;;94.93;48.58;;;;;;;2.60;100.00;100791.44;5051685;28;20151;-46
2022/11/19 03:04:31;;;;;;;86.22;46.75;;;;;;;2.40;100.00;100808.00;5051794;28;20095;-45
2022/11/19 03:07:05;;;;;;;83.88;47.13;;;;;;;2.30;100.00;100804.88;5052534;28;20100;-45
2022/11/19 03:09:33;;;;;;;88.05;46.08;;;;;;;2.27;100.00;100812.34;5051909;28;20036;-46
2022/11/19 03:12:11;;;;;;;94.22;49.53;;;;;;;2.24;100.00;100811.25;5052244;28;20036;-46
2022/11/19 03:18:01;;;;;;;98.00;50.03;;;;;;;2.18;100.00;100810.88;5052101;28;20431;-45
2022/11/19 03:21:20;;;;;;;98.82;51.20;;;;;;;2.23;100.00;100815.44;5052401;28;20469;-45
2022/11/19 03:24:02;;;;;;;99.28;50.25;;;;;;;2.09;100.00;100814.59;5042649;28;20045;-46
2022/11/19 03:26:45;;;;;;;103.40;51.08;;;;;;;2.08;100.00;100815.38;5052478;28;20021;-46
2022/11/19 03:29:13;;;;;;;103.32;51.70;;;;;;;2.05;100.00;100824.47;5052103;28;20140;-47
2022/11/19 03:31:42;;;;;;;102.10;53.03;;;;;;;2.04;100.00;100825.25;5051462;28;20108;-46
2022/11/19 03:34:14;;;;;;;103.05;53.20;;;;;;;2.05;100.00;100819.38;5052182;28;20090;-46
2022/11/19 03:36:42;;;;;;;108.35;55.28;;;;;;;2.06;100.00;100822.03;5052477;28;20017;-46
2022/11/19 03:39:15;;;;;;;108.13;53.25;;;;;;;2.02;100.00;100824.28;5051115;28;20025;-47
2022/11/19 03:41:42;;;;;;;105.30;52.30;;;;;;;2.01;100.00;100818.31;5052351;28;20420;-44
2022/11/19 03:44:11;;;;;;;;;;;;;;;2.13;100.00;100820.75;5055601;28;20021;-46
2022/11/19 03:46:39;;;;;;;108.30;52.22;;;;;;;1.94;100.00;100819.59;5055303;28;19955;-46
2022/11/19 03:49:06;;;;;;;112.60;54.25;;;;;;;1.90;100.00;100829.44;5055505;28;20472;-45
2022/11/19 03:51:53;;;;;;;117.63;55.00;;;;;;;1.92;100.00;100826.22;5055057;28;20087;-44
2022/11/19 03:54:19;;;;;;;121.80;55.22;;;;;;;1.90;100.00;100825.25;5055651;28;20071;-46
2022/11/19 03:56:46;;;;;;;117.20;55.85;;;;;;;1.91;100.00;100829.56;5055654;28;20029;-47
2022/11/19 03:59:11;;;;;;;121.53;58.50;;;;;;;1.86;100.00;100823.31;5054676;28;20128;-46
2022/11/19 04:01:38;;;;;;;128.27;57.58;;;;;;;1.85;100.00;100831.72;5055723;28;20096;-46
2022/11/19 04:06:47;;;;;;;117.55;57.42;;;;;;;1.75;100.00;100824.28;5055063;28;20040;-45
2022/11/19 04:09:12;;;;;;;120.82;56.30;;;;;;;1.78;100.00;100834.63;5055116;28;20029;-46
2022/11/19 04:11:39;;;;;;;125.55;58.78;;;;;;;1.75;100.00;100840.38;5055606;28;20051;-46
2022/11/19 04:14:04;;;;;;;118.07;58.72;;;;;;;1.72;100.00;100837.66;5054225;28;20021;-45
2022/11/19 04:16:29;;;;;;;116.97;58.60;;;;;;;1.72;100.00;100844.41;5055573;28;20032;-45
2022/11/19 04:18:54;;;;;;;128.23;60.38;;;;;;;1.72;100.00;100840.19;5055096;28;20094;-47
2022/11/19 04:21:20;;;;;;;130.00;60.55;;;;;;;1.67;100.00;100839.03;5054409;28;20518;-46
2022/11/19 04:23:45;;;;;;;129.32;60.17;;;;;;;1.66;100.00;100846.56;5055122;28;20055;-45
2022/11/19 04:26:10;;;;;;;129.45;60.67;;;;;;;1.66;100.00;100849.97;5054766;28;20140;-47
2022/11/19 04:28:35;;;;;;;129.50;63.22;;;;;;;1.66;100.00;100855.03;5054551;28;20040;-46
2022/11/19 04:31:01;;;;;;;130.25;62.20;;;;;;;1.69;100.00;100861.97;5054758;28;20044;-47
2022/11/19 04:33:26;;;;;;;126.43;59.67;;;;;;;1.70;100.00;100856.13;5055159;28;20028;-46
2022/11/19 04:35:51;;;;;;;130.85;62.55;;;;;;;1.72;100.00;100860.53;5053865;28;20029;-45
2022/11/19 04:38:16;;;;;;;126.47;59.97;;;;;;;1.72;100.00;100869.81;5054777;28;20086;-47
2022/11/19 04:40:42;;;;;;;127.68;58.35;;;;;;;1.79;100.00;100866.88;5054206;28;20468;-45
2022/11/19 04:43:07;;;;;;;134.13;64.47;;;;;;;1.74;100.00;100868.25;5054509;28;20110;-46
2022/11/19 04:45:32;;;;;;;127.13;63.10;;;;;;;1.74;100.00;100866.59;5054834;28;20036;-46
2022/11/19 04:47:57;;;;;;;129.77;62.35;;;;;;;1.72;100.00;100869.81;5053824;28;20051;-46
2022/11/19 04:50:23;;;;;;;124.07;61.65;;;;;;;1.70;100.00;100866.28;5054894;28;20028;-44
2022/11/19 04:52:48;;;;;;;133.77;64.97;;;;;;;1.73;100.00;100871.56;5054500;28;20388;-46
2022/11/19 04:55:14;;;;;;;134.27;62.45;;;;;;;1.71;100.00;100873.13;5052597;28;20033;-44
2022/11/19 04:57:39;;;;;;;130.82;62.92;;;;;;;1.71;100.00;100873.13;5054616;28;20049;-46
2022/11/19 05:00:05;;;;;;;130.88;64.57;;;;;;;1.67;100.00;100873.72;5054411;28;20044;-46
2022/11/19 05:02:31;;;;;;;135.00;64.65;;;;;;;1.66;100.00;100879.56;5053522;28;20033;-47
2022/11/19 05:04:56;;;;;;;139.27;67.88;;;;;;;1.63;100.00;100883.66;5054218;28;20025;-46
2022/11/19 05:07:21;;;;;;;134.73;65.32;;;;;;;1.61;100.00;100887.78;5054349;28;20033;-45
2022/11/19 05:09:46;;;;;;;138.90;68.22;;;;;;;1.60;100.00;100893.63;5053339;28;20060;-46
2022/11/19 05:12:12;;;;;;;134.73;66.75;;;;;;;1.56;100.00;100896.75;5054046;28;20021;-45
2022/11/19 05:14:37;;;;;;;137.73;67.18;;;;;;;1.51;100.00;100905.72;5054321;28;20117;-46
2022/11/19 05:17:03;;;;;;;131.52;66.55;;;;;;;1.45;100.00;100895.16;5053154;28;20036;-45
2022/11/19 05:19:28;;;;;;;148.18;68.70;;;;;;;1.47;100.00;100903.75;5054174;28;20396;-42
2022/11/19 05:21:54;;;;;;;137.35;67.72;;;;;;;1.46;100.00;100907.06;5053644;28;20039;-45
2022/11/19 05:24:19;;;;;;;133.65;67.50;;;;;;;1.46;100.00;100902.00;5053253;28;20491;-46
2022/11/19 05:26:44;;;;;;;140.55;68.85;;;;;;;1.43;100.00;100912.84;5054150;28;20021;-47
2022/11/19 05:29:10;;;;;;;135.23;68.63;;;;;;;1.42;100.00;100915.25;5053803;28;20384;-43
2022/11/19 05:31:35;;;;;;;143.13;70.35;;;;;;;1.48;100.00;100913.13;5053268;28;20029;-45
2022/11/19 05:34:00;;;;;;;139.20;68.57;;;;;;;1.43;100.00;100914.47;5053758;28;20043;-47
2022/11/19 05:36:26;;;;;;;131.32;64.10;;;;;;;1.42;100.00;100920.31;5053706;28;20021;-44
2022/11/19 05:38:51;;;;;;;147.70;70.63;;;;;;;1.41;100.00;100923.66;5052645;28;20037;-46
2022/11/19 05:41:16;;;;;;;142.57;70.85;;;;;;;1.41;100.00;100923.66;5053759;28;20407;-47
2022/11/19 05:43:41;;;;;;;140.07;69.25;;;;;;;1.36;100.00;100923.34;5053774;28;20028;-45
2022/11/19 05:46:07;;;;;;;136.40;68.20;;;;;;;1.38;100.00;100918.34;5052646;28;20427;-46
2022/11/19 05:48:32;;;;;;;138.27;68.95;;;;;;;1.37;100.00;100920.03;5053651;28;20028;-45
2022/11/19 05:50:57;;;;;;;136.20;69.38;;;;;;;1.34;100.00;100917.25;5052600;28;20025;-46
2022/11/19 05:53:22;;;;;;;142.55;71.35;;;;;;;1.32;100.00;100916.31;5053503;28;20029;-46
2022/11/19 05:55:48;;;;;;;151.75;72.35;;;;;;;1.34;100.00;100921.47;5053412;28;20122;-46
2022/11/19 05:58:13;;;;;;;145.63;73.93;;;;;;;1.35;100.00;100918.16;5052211;28;20060;-46
2022/11/19 06:00:38;;;;;;;140.93;70.35;;;;;;;1.33;100.00;100932.41;5053414;28;20032;-44
2022/11/19 06:03:04;;;;;;;139.07;70.75;;;;;;;1.29;100.00;100942.38;5052909;28;20460;-46
2022/11/19 06:05:29;;;;;;;143.95;74.30;;;;;;;1.25;100.00;100942.94;5052147;28;20025;-48
2022/11/19 06:07:54;;;;;;;147.65;75.20;;;;;;;1.23;100.00;100939.41;5053017;28;20025;-48
2022/11/19 06:10:19;;;;;;;149.02;75.50;;;;;;;1.21;100.00;100951.09;5053386;28;20025;-46
2022/11/19 06:12:45;;;;;;;149.60;74.50;;;;;;;1.22;100.00;100952.88;5052544;28;20029;-49
2022/11/19 06:15:10;;;;;;;149.68;75.57;;;;;;;1.23;100.00;100954.63;5052921;28;20025;-47
2022/11/19 06:17:35;;;;;;;146.80;75.93;;;;;;;1.19;100.00;100957.75;5053365;28;20469;-49
2022/11/19 06:20:01;;;;;;;148.57;75.03;;;;;;;1.18;100.00;100961.06;5051971;28;20486;-48
2022/11/19 06:22:26;;;;;;;149.95;77.05;;;;;;;1.16;100.00;100962.59;5052920;28;20037;-48
2022/11/19 06:24:51;;;;;;;146.80;72.53;;;;;;;1.13;100.00;100972.53;5052687;28;20021;-48
2022/11/19 06:27:17;;;;;;;155.02;77.70;;;;;;;1.17;100.00;100971.97;5052335;28;20017;-46
2022/11/19 06:29:42;;;;;;;147.88;75.90;;;;;;;1.13;100.00;100981.03;5052882;28;20354;-49
2022/11/19 06:32:07;;;;;;;149.05;77.47;;;;;;;1.10;100.00;100979.97;5052623;28;20053;-47
2022/11/19 06:34:33;;;;;;;152.55;78.10;;;;;;;1.11;100.00;100984.22;5052072;28;20017;-49
2022/11/19 06:36:58;;;;;;;156.82;81.93;;;;;;;1.09;100.00;100991.75;5052334;28;20029;-49
2022/11/19 06:39:24;;;;;;;152.95;75.80;;;;;;;1.07;100.00;100993.31;5052996;28;20017;-46
2022/11/19 06:41:49;;;;;;;160.23;81.78;;;;;;;1.07;100.00;100989.88;5052139;28;20029;-48
2022/11/19 06:44:14;;;;;;;159.38;81.35;;;;;;;1.10;100.00;100988.44;5052628;28;20029;-46
2022/11/19 06:46:40;;;;;;;154.55;81.25;;;;;;;1.10;100.00;100998.59;5052740;28;20380;-48
2022/11/19 06:49:06;;;;;;;159.90;78.80;;;;;;;1.12;100.00;100997.06;5051610;28;20108;-45
2022/11/19 06:51:31;;;;;;;169.85;81.82;;;;;;;1.12;100.00;100996.16;5052672;28;20056;-45
2022/11/19 06:53:56;;;;;;;157.20;80.13;;;;;;;1.11;100.00;100994.38;5052239;28;20025;-44
2022/11/19 06:56:22;;;;;;;158.88;80.80;;;;;;;1.06;100.00;100988.09;5052010;28;20035;-47
2022/11/19 06:58:47;;;;;;;159.15;79.25;;;;;;;1.06;100.00;100993.19;5052405;28;20075;-47
2022/11/19 07:01:14;;;;;;;159.02;80.03;;;;;;;1.03;100.00;100995.53;5051839;28;20387;-44
2022/11/19 07:03:39;;;;;;;163.90;78.65;;;;;;;1.03;100.00;101011.63;5052586;28;20048;-46
2022/11/19 07:06:05;;;;;;;163.23;79.00;;;;;;;1.00;100.00;101008.88;5052222;28;20028;-47
2022/11/19 07:08:33;;;;;;;169.02;80.25;;;;;;;0.96;100.00;101010.31;5051519;28;20032;-46
2022/11/19 07:10:58;;;;;;;162.10;77.97;;;;;;;0.96;100.00;101015.38;5052318;28;20095;-44
2022/11/19 07:13:55;;;;;;;161.75;79.22;;;;;;;0.96;100.00;101015.38;5052488;28;20021;-46
2022/11/19 07:16:09;;;;;;;167.10;80.20;;;;;;;0.96;100.00;101015.38;5051281;28;20029;-46
2022/11/19 07:18:34;;;;;;;175.55;82.95;;;;;;;1.00;100.00;101020.69;5054745;28;20017;-47
2022/11/19 07:20:59;;;;;;;172.80;84.25;;;;;;;1.00;100.00;101015.63;5055865;28;20033;-45
2022/11/19 07:23:25;;;;;;;175.00;83.72;;;;;;;1.02;100.00;101016.59;5055656;28;20052;-46
2022/11/19 07:25:50;;;;;;;172.07;83.07;;;;;;;1.00;100.00;101021.56;5056052;28;20032;-44
2022/11/19 07:28:15;;;;;;;163.43;78.10;;;;;;;1.02;100.00;101034.34;5056439;28;20025;-46
2022/11/19 07:30:40;;;;;;;161.18;80.05;;;;;;;1.01;100.00;101027.50;5055473;28;20468;-46
2022/11/19 07:33:06;;;;;;;167.45;78.55;;;;;;;1.02;100.00;101041.97;5055901;28;20036;-45
2022/11/19 07:35:31;;;;;;;163.13;75.75;;;;;;;1.01;100.00;101042.72;5056126;28;20044;-46
2022/11/19 07:37:56;;;;;;;168.20;80.75;;;;;;;1.01;100.00;101047.81;5055045;28;20025;-46
2022/11/19 07:40:21;;;;;;;163.82;80.53;;;;;;;0.98;100.00;101044.31;5056080;28;20029;-46
2022/11/19 07:42:50;;;;;;;175.23;79.32;;;;;;;1.01;100.00;101057.97;5055695;28;20029;-45
2022/11/19 07:45:18;;;;;;;157.45;77.55;;;;;;;0.98;100.00;101057.00;5055142;28;20124;-47
2022/11/19 07:47:43;;;;;;;165.93;80.72;;;;;;;1.02;100.00;101053.03;5055871;28;20051;-47
2022/11/19 07:50:08;;;;;;;167.13;80.05;;;;;;;1.01;100.00;101057.97;5055401;28;20392;-45
2022/11/19 07:52:34;;;;;;;170.32;79.90;;;;;;;1.05;100.00;101054.91;5054984;28;20379;-45
2022/11/19 07:54:59;;;;;;;173.65;81.10;;;;;;;1.08;100.00;101057.63;5054900;28;20033;-47
2022/11/19 07:57:25;;;;;;;164.93;79.30;;;;;;;1.06;100.00;101066.78;5054541;28;20024;-45
2022/11/19 07:59:50;;;;;;;165.93;78.18;;;;;;;1.07;100.00;101069.47;5054482;28;20025;-42
2022/11/19 08:02:15;;;;;;;169.73;81.78;;;;;;;1.08;100.00;101065.25;5055217;28;20025;-46
2022/11/19 08:04:40;;;;;;;163.10;79.95;;;;;;;1.08;100.00;101065.25;5054731;28;20033;-44
2022/11/19 08:07:06;;;;;;;165.18;78.82;;;;;;;1.06;100.00;101062.63;5055131;28;20464;-45
2022/11/19 08:09:31;;;;;;;160.07;78.40;;;;;;;1.11;100.00;101065.47;5055358;28;20511;-42
2022/11/19 08:11:57;;;;;;;166.20;77.70;;;;;;;1.11;100.00;101065.47;5054336;28;20384;-44
2022/11/19 08:14:22;;;;;;;164.73;76.78;;;;;;;1.06;100.00;101082.03;5055313;28;20024;-44
2022/11/19 08:19:31;;;;;;;158.57;75.88;;;;;;;1.07;100.00;101089.78;5054715;28;20090;-47
2022/11/19 08:21:57;;;;;;;161.48;76.95;;;;;;;1.07;100.00;101088.88;5054935;28;20380;-46
2022/11/19 08:24:22;;;;;;;160.23;78.05;;;;;;;1.07;100.00;101088.88;5055212;28;20061;-45
2022/11/19 08:26:48;;;;;;;163.75;78.05;;;;;;;1.09;100.00;101084.78;5054367;28;20075;-47
2022/11/19 08:29:15;;;;;;;166.25;79.63;;;;;;;1.18;100.00;101092.19;5054682;28;20086;-47
2022/11/19 08:31:42;;;;;;;157.55;76.03;;;;;;;1.20;100.00;101096.59;5054954;28;20025;-46
2022/11/19 08:34:07;;;;;;;158.70;77.55;;;;;;;1.19;100.00;101099.91;5053963;28;20032;-47
2022/11/19 08:36:33;;;;;;;158.57;77.70;;;;;;;1.19;100.00;101094.84;5055571;28;20021;-45
2022/11/19 08:39:02;;;;;;;160.25;76.32;;;;;;;1.20;100.00;101101.69;5054650;28;20587;-46
2022/11/19 08:44:13;;;;;;;156.30;73.68;;;;;;;1.24;100.00;101096.03;5054792;28;20515;-46
2022/11/19 08:46:39;;;;;;;156.70;73.60;;;;;;;1.24;100.00;101098.59;5054861;28;20021;-47
2022/11/19 08:49:05;;;;;;;153.57;75.15;;;;;;;1.24;100.00;101107.84;5053777;28;20095;-45
2022/11/19 08:51:31;;;;;;;158.50;75.45;;;;;;;1.26;100.00;101107.19;5054750;28;20025;-45
2022/11/19 08:53:56;;;;;;;154.77;75.72;;;;;;;1.24;100.00;101111.28;5053484;28;20098;-47
2022/11/19 08:56:22;;;;;;;153.88;73.93;;;;;;;1.20;100.00;101111.84;5054573;28;20028;-47
2022/11/19 08:58:48;;;;;;;158.25;76.88;;;;;;;1.22;100.00;101114.47;5054170;28;20042;-44
2022/11/19 09:01:15;;;;;;;157.77;76.20;;;;;;;1.24;100.00;101111.28;5053401;28;20036;-46
2022/11/19 09:03:40;;;;;;;159.32;76.05;;;;;;;1.19;100.00;101109.16;5054480;28;20024;-47
2022/11/19 09:06:06;;;;;;;153.68;73.28;;;;;;;1.27;100.00;101111.47;5054118;28;20125;-47
2022/11/19 09:08:32;;;;;;;145.98;71.43;;;;;;;1.27;100.00;101121.63;5053634;28;20044;-43
2022/11/19 09:10:58;;;;;;;152.25;75.00;;;;;;;1.25;100.00;101114.69;5053914;28;20017;-46
2022/11/19 09:13:23;;;;;;;147.32;72.53;;;;;;;1.24;100.00;101116.34;5054157;28;20029;-46
2022/11/19 09:15:50;;;;;;;150.38;71.18;;;;;;;1.25;100.00;101115.59;5053528;28;20483;-45
2022/11/19 09:18:15;;;;;;;141.45;68.75;;;;;;;1.26;100.00;101116.47;5054220;28;20104;-46
2022/11/19 09:20:40;;;;;;;148.35;72.38;;;;;;;1.35;100.00;101117.09;5054121;28;20104;-45
2022/11/19 09:23:06;;;;;;;153.25;73.85;;;;;;;1.43;100.00;101122.72;5052851;28;20029;-46
2022/11/19 09:25:32;;;;;;;143.07;69.95;;;;;;;1.35;100.00;101117.09;5053977;28;20037;-46
2022/11/19 09:27:57;;;;;;;150.55;71.75;;;;;;;1.41;100.00;101125.16;5053577;28;20047;-46
2022/11/19 09:30:23;;;;;;;144.13;69.82;;;;;;;1.47;100.00;101127.25;5053185;28;20445;-44
2022/11/19 09:32:48;;;;;;;145.30;71.82;;;;;;;1.42;100.00;101123.50;5053879;28;20037;-48
2022/11/19 09:35:13;;;;;;;148.63;70.18;;;;;;;1.47;100.00;101129.78;5053701;28;20484;-46
2022/11/19 09:37:39;;;;;;;142.80;68.25;;;;;;;1.47;100.00;101127.25;5053140;28;20083;-47
2022/11/19 09:40:05;;;;;;;135.18;66.47;;;;;;;1.47;99.94;101133.22;5052895;28;20036;-44
2022/11/19 09:42:57;;;;;;;131.90;66.55;;;;;;;1.53;100.00;101144.59;5053546;28;20029;-46
2022/11/19 09:45:38;;;;;;;139.98;67.00;;;;;;;1.59;100.00;101143.38;5053038;28;20120;-47
2022/11/19 09:48:16;;;;;;;153.70;73.05;;;;;;;1.64;100.00;101158.94;5053448;28;20033;-45
2022/11/19 09:50:58;;;;;;;137.95;66.82;;;;;;;1.60;100.00;101167.09;5052761;28;20036;-46
2022/11/19 09:53:29;;;;;;;137.35;67.43;;;;;;;1.54;100.00;101167.56;5053445;28;20496;-44
2022/11/19 09:55:56;;;;;;;133.18;65.78;;;;;;;1.51;99.08;101164.81;5053417;28;20017;-46
2022/11/19 09:58:25;;;;;;;140.55;67.80;;;;;;;1.51;99.78;101169.00;5052618;28;20041;-46
2022/11/19 10:00:50;;;;;;;139.32;69.03;;;;;;;1.54;100.00;101170.09;5053186;28;20138;-42
2022/11/19 10:03:19;;;;;;;138.82;66.78;;;;;;;1.51;100.00;101172.44;5053392;28;20035;-44
2022/11/19 10:05:48;;;;;;;137.27;67.47;;;;;;;1.64;100.00;101175.06;5052688;28;20100;-45
2022/11/19 10:08:34;;;;;;;139.90;66.32;;;;;;;1.62;99.77;101173.19;5053050;28;20029;-45
2022/11/19 10:11:25;;;;;;;130.93;63.65;;;;;;;1.57;98.81;101185.56;5053022;28;20033;-46
2022/11/19 10:14:20;;;;;;;141.05;66.05;;;;;;;1.50;99.52;101183.38;5053145;28;20025;-42
2022/11/19 10:17:04;;;;;;;138.98;62.95;;;;;;;1.46;98.34;101176.31;5053347;28;20024;-46
2022/11/19 10:19:48;;;;;;;143.18;65.30;;;;;;;1.43;99.17;101174.44;5052188;28;20469;-46
2022/11/19 10:22:22;;;;;;;131.05;62.22;;;;;;;1.39;98.26;101174.97;5052823;28;20123;-47
2022/11/19 10:24:59;;;;;;;129.95;61.35;;;;;;;1.41;99.08;101177.63;5053202;28;20102;-46
2022/11/19 10:27:33;;;;;;;130.23;63.20;;;;;;;1.45;100.00;101184.69;5052224;28;20383;-45
2022/11/19 10:30:02;;;;;;;134.75;62.55;;;;;;;1.46;98.83;101189.00;5052911;28;20095;-44
2022/11/19 10:32:41;;;;;;;136.55;65.80;;;;;;;1.50;98.65;101192.63;5052143;28;20044;-42
2022/11/19 10:35:15;;;;;;;127.80;62.15;;;;;;;1.43;97.29;101201.47;5052766;28;20380;-45
2022/11/19 10:37:51;;;;;;;123.30;60.53;;;;;;;1.37;97.21;101198.47;5052977;28;20026;-47
2022/11/19 10:40:21;;;;;;;133.88;63.90;;;;;;;1.40;97.45;101206.34;5051952;28;20457;-46
2022/11/19 10:42:56;;;;;;;131.02;61.00;;;;;;;1.39;98.44;101204.56;5052677;28;20075;-46
2022/11/19 10:45:25;;;;;;;128.32;61.55;;;;;;;1.42;98.66;101195.53;5053205;28;20021;-46
2022/11/19 10:48:07;;;;;;;130.63;61.63;;;;;;;1.45;99.13;101188.09;5051726;28;20464;-43
2022/11/19 10:50:32;;;;;;;132.63;63.42;;;;;;;1.51;97.79;101180.06;5052967;28;20036;-45
2022/11/19 10:53:11;;;;;;;138.90;64.20;;;;;;;1.57;97.01;101192.31;5053926;28;20025;-43
2022/11/19 10:55:40;;;;;;;123.72;61.28;;;;;;;1.49;96.19;101191.75;5056299;28;20090;-42
2022/11/19 10:58:27;;;;;;;123.70;57.08;;;;;;;1.59;95.89;101200.94;5056457;28;20052;-45
2022/11/19 11:00:55;;;;;;;121.68;58.65;;;;;;;1.48;95.61;101189.97;5055615;28;20473;-44
2022/11/19 11:03:25;;;;;;;119.78;57.55;;;;;;;1.51;95.35;101189.31;5056733;28;20461;-45
2022/11/19 11:06:04;;;;;;;122.13;58.60;;;;;;;1.58;97.27;101194.94;5056480;28;20036;-42
2022/11/19 11:08:29;;;;;;;107.07;51.72;;;;;;;1.47;95.43;101193.28;5056063;28;20025;-46
2022/11/19 11:10:55;;;;;;;112.88;54.78;;;;;;;1.45;94.61;101192.31;5056491;28;20032;-45
2022/11/19 11:16:16;;;;;;;120.63;56.58;;;;;;;1.41;96.27;101197.94;5055658;28;20036;-46
2022/11/19 11:18:42;;;;;;;107.78;52.60;;;;;;;1.46;95.98;101199.16;5056925;28;20021;-45
2022/11/19 11:21:23;;;;;;;111.40;52.90;;;;;;;1.42;94.74;101200.59;5056150;28;20352;-45
2022/11/19 11:23:54;;;;;;;114.18;54.67;;;;;;;1.54;95.75;101194.63;5055630;28;20037;-46
2022/11/19 11:26:25;;;;;;;107.43;52.45;;;;;;;1.55;94.66;101196.38;5056359;28;20021;-47
2022/11/19 11:28:55;;;;;;;108.30;52.33;;;;;;;1.57;94.75;101195.72;5055207;28;20082;-45
2022/11/19 11:31:29;;;;;;;106.95;51.40;;;;;;;1.54;93.81;101194.63;5056384;28;20040;-46
2022/11/19 11:33:56;;;;;;;111.38;52.97;;;;;;;1.58;95.64;101189.00;5055901;28;20384;-47